Time;durP1;ratioP1;P1;durP2;ratioP2;P2;SDS_P1;SDS_P2;PMS_P1;PMS_P2;Temp;Humidity;BMP_temperature;BMP_pressure;BME280_temperature;BME280_humidity;BME280_pressure;Samples;Min_cycle;Max_cycle;Signal;HPM_P1;HPM_P2
2023/07/26 00:01:56;;;;;;;7.90;1.48;;;;;;;13.42;100.00;100114.31;5032533;28;20054;-63
2023/07/26 00:04:22;;;;;;;7.00;1.50;;;;;;;13.48;100.00;100118.09;5032882;28;20163;-60
2023/07/26 00:06:49;;;;;;;7.05;1.73;;;;;;;13.32;100.00;100125.44;5032515;28;20045;-61
2023/07/26 00:09:15;;;;;;;6.22;1.63;;;;;;;13.32;100.00;100122.75;5032525;28;20103;-60
2023/07/26 00:11:42;;;;;;;9.45;1.38;;;;;;;13.30;100.00;100129.34;5032351;28;20053;-63
2023/07/26 00:14:08;;;;;;;9.77;2.08;;;;;;;13.18;100.00;100126.34;5032389;28;20045;-62
2023/07/26 00:16:35;;;;;;;8.88;1.52;;;;;;;13.15;100.00;100132.09;5032403;28;20547;-62
2023/07/26 00:19:02;;;;;;;9.30;1.60;;;;;;;13.09;100.00;100132.88;5032267;28;20080;-60
2023/07/26 00:21:28;;;;;;;8.10;1.80;;;;;;;12.99;100.00;100130.47;5032210;28;20467;-62
2023/07/26 00:23:55;;;;;;;9.80;1.50;;;;;;;12.86;100.00;100133.84;5031904;28;20049;-61
2023/07/26 00:26:22;;;;;;;5.70;1.75;;;;;;;12.85;100.00;100124.09;5032824;28;20572;-60
2023/07/26 00:28:49;;;;;;;9.82;1.45;;;;;;;12.84;100.00;100130.53;5032134;28;20456;-61
2023/07/26 00:31:15;;;;;;;5.18;1.48;;;;;;;12.78;100.00;100135.84;5030718;28;20119;-61
2023/07/26 00:33:42;;;;;;;9.13;1.42;;;;;;;12.73;100.00;100139.06;5030680;28;20049;-61
2023/07/26 00:36:09;;;;;;;7.05;1.33;;;;;;;12.70;100.00;100138.63;5031942;28;20119;-61
2023/07/26 00:38:35;;;;;;;5.03;1.13;;;;;;;12.65;100.00;100133.78;5031919;28;20046;-62
2023/07/26 00:41:02;;;;;;;10.30;1.50;;;;;;;12.67;100.00;100145.19;5031646;28;20402;-60
2023/07/26 00:43:28;;;;;;;8.85;1.80;;;;;;;12.62;100.00;100136.84;5031833;28;20046;-61
2023/07/26 00:45:55;;;;;;;5.03;1.20;;;;;;;12.51;100.00;100148.09;5031962;28;20096;-61
2023/07/26 00:48:22;;;;;;;6.65;1.48;;;;;;;12.49;100.00;100142.06;5032248;28;20107;-61
2023/07/26 00:50:49;;;;;;;6.25;1.35;;;;;;;12.51;100.00;100148.09;5031735;28;20464;-61
2023/07/26 00:53:16;;;;;;;8.88;1.48;;;;;;;12.51;100.00;100148.91;5031271;28;20119;-61
2023/07/26 00:55:45;;;;;;;4.85;1.10;;;;;;;12.49;100.00;100148.28;5031575;28;20502;-61
2023/07/26 00:58:12;;;;;;;6.60;1.60;;;;;;;12.45;100.00;100146.13;5031578;28;20465;-61
2023/07/26 01:00:43;;;;;;;7.80;1.73;;;;;;;12.41;100.00;100151.88;5035589;28;20049;-60
2023/07/26 01:03:09;;;;;;;6.83;1.37;;;;;;;12.40;100.00;100150.22;5031546;28;20493;-60
2023/07/26 01:09:26;;;;;;;9.95;1.35;;;;;;;12.37;100.00;100153.28;5030875;28;20453;-61
2023/07/26 01:12:21;;;;;;;5.13;1.17;;;;;;;12.29;100.00;100157.94;5034944;28;20095;-60
2023/07/26 01:14:56;;;;;;;5.72;1.10;;;;;;;12.23;100.00;100159.50;5031367;28;20095;-61
2023/07/26 01:17:23;;;;;;;9.88;1.85;;;;;;;12.22;100.00;100167.75;5031517;28;20128;-61
2023/07/26 01:19:51;;;;;;;6.07;1.42;;;;;;;12.17;100.00;100170.97;5030804;28;20048;-61
2023/07/26 01:22:18;;;;;;;8.73;1.77;;;;;;;12.15;100.00;100162.28;5029778;28;20504;-61
2023/07/26 01:24:44;;;;;;;6.97;1.25;;;;;;;12.05;100.00;100167.91;5030440;28;20486;-62
2023/07/26 01:27:11;;;;;;;6.85;1.45;;;;;;;11.97;100.00;100165.31;5030924;28;20053;-62
2023/07/26 01:29:37;;;;;;;8.93;1.52;;;;;;;12.03;100.00;100163.75;5030977;28;20119;-60
2023/07/26 01:32:07;;;;;;;6.65;1.33;;;;;;;11.90;100.00;100159.84;5029051;28;20516;-60
2023/07/26 01:34:34;;;;;;;9.98;2.67;;;;;;;11.87;100.00;100162.06;5029411;28;20050;-60
2023/07/26 01:37:01;;;;;;;6.00;1.20;;;;;;;11.86;100.00;100161.22;5030077;28;20095;-63
2023/07/26 01:39:28;;;;;;;9.77;1.45;;;;;;;11.88;100.00;100161.03;5030677;28;20057;-61
2023/07/26 01:41:55;;;;;;;6.43;1.25;;;;;;;11.76;100.00;100166.03;5030821;28;20045;-61
2023/07/26 01:44:22;;;;;;;5.68;1.27;;;;;;;11.75;100.00;100163.50;5031392;28;20045;-60
2023/07/26 01:46:52;;;;;;;8.77;1.58;;;;;;;11.74;100.00;100162.66;5030759;28;20497;-61
2023/07/26 01:49:21;;;;;;;11.82;2.85;;;;;;;11.73;100.00;100155.63;5030748;28;20120;-61
2023/07/26 01:51:48;;;;;;;8.52;1.65;;;;;;;11.67;100.00;100161.72;5030824;28;20520;-61
2023/07/26 01:54:14;;;;;;;7.97;1.63;;;;;;;11.64;100.00;100160.19;5030612;28;20115;-62
2023/07/26 01:56:42;;;;;;;8.85;1.35;;;;;;;11.56;100.00;100162.13;5030552;28;20103;-61
2023/07/26 01:59:09;;;;;;;5.95;2.08;;;;;;;11.57;100.00;100169.16;5030494;28;20195;-62
2023/07/26 02:01:36;;;;;;;6.00;1.35;;;;;;;11.51;100.00;100164.50;5030822;28;20052;-61
2023/07/26 02:04:03;;;;;;;9.70;1.73;;;;;;;11.42;100.00;100167.28;5030058;28;20136;-62
2023/07/26 02:06:30;;;;;;;7.15;2.05;;;;;;;11.44;100.00;100164.38;5030357;28;20148;-61
2023/07/26 02:08:56;;;;;;;6.80;1.15;;;;;;;11.43;100.00;100162.72;5030684;28;20045;-60
2023/07/26 02:11:23;;;;;;;10.25;1.92;;;;;;;11.38;100.00;100179.38;5030652;28;20508;-62
2023/07/26 02:13:49;;;;;;;8.98;1.90;;;;;;;11.44;100.00;100175.13;5030072;28;20490;-59
2023/07/26 02:16:16;;;;;;;8.23;1.80;;;;;;;11.36;100.00;100181.41;5029848;28;20104;-61
2023/07/26 02:18:43;;;;;;;4.68;1.50;;;;;;;11.29;100.00;100179.63;5029999;28;20041;-61
2023/07/26 02:21:10;;;;;;;7.10;1.60;;;;;;;11.33;100.00;100178.25;5029880;28;20111;-61
2023/07/26 02:23:36;;;;;;;5.82;1.70;;;;;;;11.30;100.00;100178.59;5029832;28;20049;-60
2023/07/26 02:26:03;;;;;;;10.18;1.85;;;;;;;11.29;100.00;100175.06;5030312;28;20107;-61
2023/07/26 02:28:30;;;;;;;8.30;1.50;;;;;;;11.26;100.00;100177.28;5029946;28;20045;-62
2023/07/26 02:30:56;;;;;;;13.10;1.60;;;;;;;11.29;100.00;100182.31;5030128;28;20083;-60
2023/07/26 02:33:23;;;;;;;5.72;1.50;;;;;;;11.25;100.00;100191.72;5030694;28;20362;-61
2023/07/26 02:35:49;;;;;;;9.82;1.48;;;;;;;11.21;100.00;100192.09;5029780;28;20072;-61
2023/07/26 02:38:16;;;;;;;9.63;1.70;;;;;;;11.25;100.00;100199.78;5029735;28;20104;-61
2023/07/26 02:40:42;;;;;;;7.07;1.70;;;;;;;11.21;100.00;100196.63;5030082;28;20107;-62
2023/07/26 02:43:09;;;;;;;10.27;1.67;;;;;;;11.19;100.00;100206.69;5030085;28;20053;-61
2023/07/26 02:45:35;;;;;;;5.45;2.33;;;;;;;11.16;100.00;100204.34;5029889;28;20088;-61
2023/07/26 02:48:02;;;;;;;10.15;2.33;;;;;;;11.21;100.00;100207.38;5029874;28;20056;-61
2023/07/26 02:50:29;;;;;;;11.48;2.00;;;;;;;11.20;100.00;100198.44;5030074;28;20053;-61
2023/07/26 02:52:55;;;;;;;7.97;1.92;;;;;;;11.09;100.00;100206.06;5029906;28;20111;-61
2023/07/26 02:55:22;;;;;;;4.68;1.58;;;;;;;11.09;100.00;100208.75;5028903;28;20046;-60
2023/07/26 02:57:49;;;;;;;7.88;2.42;;;;;;;11.05;100.00;100210.97;5029843;28;20065;-61
2023/07/26 03:00:16;;;;;;;14.32;1.83;;;;;;;10.94;100.00;100220.25;5029892;28;20138;-63
2023/07/26 03:02:43;;;;;;;9.18;1.60;;;;;;;10.91;100.00;100217.91;5029973;28;20045;-60
2023/07/26 03:05:09;;;;;;;8.30;1.80;;;;;;;10.92;100.00;100221.41;5029845;28;20049;-62
2023/07/26 03:07:37;;;;;;;17.20;2.28;;;;;;;10.83;100.00;100223.31;5029787;28;20064;-60
2023/07/26 03:10:03;;;;;;;7.07;1.70;;;;;;;10.74;100.00;100227.88;5029585;28;20119;-60
2023/07/26 03:12:30;;;;;;;7.78;1.60;;;;;;;10.71;100.00;100227.38;5029527;28;20049;-62
2023/07/26 03:14:56;;;;;;;9.55;2.00;;;;;;;10.65;100.00;100233.44;5030108;28;20050;-61
2023/07/26 03:17:23;;;;;;;7.97;1.70;;;;;;;10.65;100.00;100234.28;5034201;28;20046;-61
2023/07/26 03:19:50;;;;;;;13.85;1.75;;;;;;;10.58;100.00;100227.94;5033501;28;20386;-62
2023/07/26 03:22:17;;;;;;;5.60;1.70;;;;;;;10.59;100.00;100237.66;5033394;28;20148;-61
2023/07/26 03:24:43;;;;;;;5.90;1.58;;;;;;;10.60;100.00;100243.84;5033216;28;20041;-62
2023/07/26 03:27:10;;;;;;;7.25;2.20;;;;;;;10.54;100.00;100247.22;5031774;28;20128;-61
2023/07/26 03:29:37;;;;;;;7.32;1.95;;;;;;;10.59;100.00;100252.91;5033418;28;20045;-60
2023/07/26 03:32:04;;;;;;;7.53;2.38;;;;;;;10.49;100.00;100245.03;5033102;28;20053;-60
2023/07/26 03:34:30;;;;;;;5.75;1.50;;;;;;;10.48;100.00;100256.78;5032983;28;20042;-62
2023/07/26 03:36:57;;;;;;;10.90;3.03;;;;;;;10.43;100.00;100261.78;5032428;28;20046;-61
2023/07/26 03:39:24;;;;;;;9.82;1.90;;;;;;;10.42;100.00;100260.97;5032092;28;20670;-60
2023/07/26 03:41:51;;;;;;;9.90;2.42;;;;;;;10.40;100.00;100262.97;5037105;28;20041;-59
2023/07/26 03:44:18;;;;;;;5.53;1.80;;;;;;;10.34;100.00;100266.34;5033087;28;20061;-61
2023/07/26 03:46:44;;;;;;;9.95;1.58;;;;;;;10.36;100.00;100267.00;5033052;28;20068;-60
2023/07/26 03:49:11;;;;;;;8.25;1.70;;;;;;;10.34;100.00;100282.44;5032960;28;20563;-60
2023/07/26 03:51:38;;;;;;;14.38;2.50;;;;;;;10.39;100.00;100281.91;5033017;28;20045;-60
2023/07/26 03:54:05;;;;;;;10.98;2.00;;;;;;;10.39;100.00;100279.22;5032760;28;20509;-61
2023/07/26 03:56:31;;;;;;;13.55;2.08;;;;;;;10.35;100.00;100291.31;5032840;28;20446;-61
2023/07/26 03:58:58;;;;;;;12.73;1.88;;;;;;;10.33;100.00;100288.78;5032658;28;20052;-61
2023/07/26 04:01:25;;;;;;;7.53;1.92;;;;;;;10.35;100.00;100297.50;5033163;28;20049;-60
2023/07/26 04:03:52;;;;;;;9.40;2.45;;;;;;;10.34;100.00;100290.47;5036601;28;20037;-60
2023/07/26 04:06:19;;;;;;;7.43;1.98;;;;;;;10.35;100.00;100299.34;5032598;28;20076;-61
2023/07/26 04:08:46;;;;;;;4.65;1.70;;;;;;;10.37;100.00;100300.84;5032420;28;20111;-62
2023/07/26 04:11:13;;;;;;;14.63;2.05;;;;;;;10.37;100.00;100306.19;5032450;28;20072;-60
2023/07/26 04:13:39;;;;;;;7.45;1.88;;;;;;;10.43;100.00;100300.16;5032546;28;20049;-60
2023/07/26 04:16:26;;;;;;;13.50;2.17;;;;;;;10.41;100.00;100299.50;5032210;28;20402;-60
2023/07/26 04:18:53;;;;;;;11.25;2.08;;;;;;;10.43;100.00;100304.69;5040186;28;20046;-63
2023/07/26 04:21:19;;;;;;;7.60;2.15;;;;;;;10.45;100.00;100298.16;5032277;28;20493;-60
2023/07/26 04:23:46;;;;;;;8.27;1.77;;;;;;;10.44;100.00;100307.22;5031901;28;20054;-61
2023/07/26 04:26:13;;;;;;;10.27;1.92;;;;;;;10.45;100.00;100303.53;5031934;28;20049;-62
2023/07/26 04:28:40;;;;;;;13.77;2.42;;;;;;;10.52;100.00;100306.41;5031801;28;20136;-59
2023/07/26 04:31:06;;;;;;;8.13;1.92;;;;;;;10.56;100.00;100307.72;5032030;28;20141;-62
2023/07/26 04:33:33;;;;;;;11.38;2.15;;;;;;;10.63;100.00;100307.88;5030253;28;20045;-61
2023/07/26 04:36:00;;;;;;;11.05;2.60;;;;;;;10.73;100.00;100311.22;5031625;28;20053;-61
2023/07/26 04:38:26;;;;;;;7.93;1.95;;;;;;;10.77;100.00;100307.19;5031589;28;20072;-62
2023/07/26 04:40:53;;;;;;;12.73;2.33;;;;;;;10.75;100.00;100306.50;5032351;28;20100;-61
2023/07/26 04:43:20;;;;;;;11.88;2.22;;;;;;;10.93;100.00;100309.84;5032123;28;20466;-62
2023/07/26 04:45:50;;;;;;;29.35;14.73;;;;;;;11.08;100.00;100317.16;5031877;28;20060;-62
2023/07/26 04:48:18;;;;;;;14.40;7.32;;;;;;;10.99;100.00;100310.97;5031839;28;20046;-62
2023/07/26 04:50:46;;;;;;;13.57;3.38;;;;;;;10.99;100.00;100311.81;5031946;28;20064;-62
2023/07/26 04:53:13;;;;;;;8.77;3.25;;;;;;;11.06;100.00;100308.44;5031517;28;20490;-61
2023/07/26 04:55:46;;;;;;;11.05;2.10;;;;;;;11.07;100.00;100316.31;5031225;28;20068;-62
2023/07/26 04:58:13;;;;;;;10.38;2.80;;;;;;;11.19;100.00;100322.13;5031514;28;20394;-60
2023/07/26 05:00:41;;;;;;;11.50;2.65;;;;;;;11.10;100.00;100318.66;5031189;28;20103;-60
2023/07/26 05:03:08;;;;;;;9.85;2.15;;;;;;;11.11;100.00;100319.50;5031288;28;20458;-61
2023/07/26 05:05:35;;;;;;;12.43;2.40;;;;;;;11.16;100.00;100319.81;5031475;28;20047;-61
2023/07/26 05:08:04;;;;;;;8.00;1.80;;;;;;;11.09;100.00;100321.50;5031200;28;20103;-61
2023/07/26 05:10:31;;;;;;;13.68;2.45;;;;;;;11.04;100.00;100321.19;5031282;28;20450;-60
2023/07/26 05:12:58;;;;;;;11.95;2.53;;;;;;;11.11;100.00;100316.81;5031366;28;20136;-61
2023/07/26 05:15:25;;;;;;;11.55;2.63;;;;;;;11.11;100.00;100327.56;5031704;28;20080;-62
2023/07/26 05:17:51;;;;;;;6.70;1.80;;;;;;;11.16;100.00;100323.31;5031361;28;20111;-62
2023/07/26 05:20:18;;;;;;;9.20;1.63;;;;;;;11.17;100.00;100321.47;5031076;28;20061;-62
2023/07/26 05:22:45;;;;;;;11.95;2.15;;;;;;;11.26;100.00;100316.91;5030641;28;20050;-62
2023/07/26 05:25:11;;;;;;;13.23;2.05;;;;;;;11.31;100.00;100320.75;5031298;28;20045;-60
2023/07/26 05:27:38;;;;;;;9.02;2.08;;;;;;;11.36;100.00;100322.91;5031311;28;20498;-60
2023/07/26 05:30:05;;;;;;;13.07;2.22;;;;;;;11.39;100.00;100326.09;5031464;28;20053;-62
2023/07/26 05:32:32;;;;;;;14.52;2.38;;;;;;;11.41;100.00;100320.53;5031290;28;20088;-61
2023/07/26 05:34:59;;;;;;;5.63;1.52;;;;;;;11.34;100.00;100325.75;5031126;28;20052;-61
2023/07/26 05:37:26;;;;;;;8.05;2.03;;;;;;;11.37;100.00;100324.56;5031467;28;20458;-61
2023/07/26 05:39:52;;;;;;;10.95;2.30;;;;;;;11.42;100.00;100333.78;5034442;28;20406;-63
2023/07/26 05:42:19;;;;;;;8.25;1.90;;;;;;;11.54;100.00;100328.03;5030897;28;20543;-63
2023/07/26 05:44:45;;;;;;;12.07;2.15;;;;;;;11.55;100.00;100329.69;5030733;28;20076;-63
2023/07/26 05:47:14;;;;;;;7.93;2.13;;;;;;;11.62;100.00;100328.81;5031238;28;20049;-60
2023/07/26 05:49:42;;;;;;;9.77;2.70;;;;;;;11.68;100.00;100327.28;5029684;28;20064;-62
2023/07/26 05:52:09;;;;;;;8.25;2.20;;;;;;;11.69;100.00;100337.06;5030743;28;20054;-60
2023/07/26 05:54:36;;;;;;;6.80;2.20;;;;;;;11.82;100.00;100331.06;5030477;28;20045;-62
2023/07/26 05:57:03;;;;;;;7.55;2.00;;;;;;;11.83;100.00;100333.59;5030568;28;20053;-61
2023/07/26 05:59:30;;;;;;;11.35;2.63;;;;;;;11.85;100.00;100338.78;5030527;28;20045;-62
2023/07/26 06:01:58;;;;;;;11.20;2.47;;;;;;;11.97;100.00;100340.06;5030642;28;20476;-62
2023/07/26 06:04:25;;;;;;;9.82;2.38;;;;;;;12.04;100.00;100342.88;5031281;28;20136;-61
2023/07/26 06:06:51;;;;;;;8.93;2.10;;;;;;;12.14;100.00;100343.44;5031162;28;20049;-62
2023/07/26 06:09:20;;;;;;;9.77;2.90;;;;;;;12.11;100.00;100343.81;5030935;28;20456;-62
2023/07/26 06:11:49;;;;;;;14.07;2.73;;;;;;;12.34;100.00;100347.31;5030697;28;20103;-63
2023/07/26 06:14:24;;;;;;;11.55;2.67;;;;;;;12.42;100.00;100346.44;5030713;28;20355;-63
2023/07/26 06:16:52;;;;;;;10.15;2.05;;;;;;;12.50;100.00;100353.59;5030711;28;20504;-61
2023/07/26 06:19:19;;;;;;;10.23;2.20;;;;;;;12.35;100.00;100346.31;5030667;28;20042;-62
2023/07/26 06:21:46;;;;;;;7.70;2.35;;;;;;;12.54;100.00;100355.72;5030782;28;20563;-61
2023/07/26 06:24:13;;;;;;;11.80;2.55;;;;;;;12.64;100.00;100344.72;5029135;28;20053;-63
2023/07/26 06:26:40;;;;;;;10.25;2.35;;;;;;;12.73;100.00;100345.44;5030474;28;20489;-62
2023/07/26 06:29:06;;;;;;;5.30;1.67;;;;;;;12.86;100.00;100343.00;5030346;28;20119;-61
2023/07/26 06:31:33;;;;;;;12.82;5.30;;;;;;;12.91;100.00;100350.53;5030228;28;20046;-61
2023/07/26 06:34:00;;;;;;;8.65;1.98;;;;;;;13.03;100.00;100343.66;5030306;28;20056;-63
2023/07/26 06:36:27;;;;;;;7.43;2.10;;;;;;;13.13;100.00;100344.22;5030430;28;20049;-62
2023/07/26 06:38:53;;;;;;;13.43;2.22;;;;;;;13.15;100.00;100336.81;5030610;28;20052;-62
2023/07/26 06:41:20;;;;;;;16.92;2.00;;;;;;;13.16;100.00;100343.84;5030516;28;20053;-63
2023/07/26 06:43:47;;;;;;;10.50;2.15;;;;;;;13.49;100.00;100338.91;5030314;28;20115;-62
2023/07/26 06:46:13;;;;;;;7.72;1.65;;;;;;;13.48;100.00;100347.16;5029470;28;20075;-62
2023/07/26 06:48:40;;;;;;;9.07;2.08;;;;;;;13.65;100.00;100350.47;5030408;28;20129;-61
2023/07/26 06:51:10;;;;;;;8.95;2.15;;;;;;;13.77;100.00;100344.44;5032819;28;20465;-61
2023/07/26 06:53:36;;;;;;;12.15;2.75;;;;;;;13.89;100.00;100355.56;5034270;28;20183;-61
2023/07/26 06:56:03;;;;;;;9.00;2.90;;;;;;;13.93;100.00;100356.00;5034344;28;20103;-62
2023/07/26 06:58:30;;;;;;;6.13;1.63;;;;;;;14.07;100.00;100357.81;5032709;28;20080;-63
2023/07/26 07:00:58;;;;;;;6.22;2.10;;;;;;;14.16;100.00;100362.06;5033935;28;20049;-65
2023/07/26 07:03:24;;;;;;;8.82;2.08;;;;;;;14.00;100.00;100357.75;5034040;28;20115;-63
2023/07/26 07:05:51;;;;;;;4.35;1.70;;;;;;;14.21;100.00;100358.78;5033866;28;20052;-61
2023/07/26 07:08:17;;;;;;;4.93;1.15;;;;;;;14.30;100.00;100354.94;5032657;28;20038;-62
2023/07/26 07:10:44;;;;;;;9.65;1.50;;;;;;;14.37;100.00;100360.38;5033837;28;20100;-62
2023/07/26 07:13:11;;;;;;;10.00;1.65;;;;;;;14.45;100.00;100366.47;5033868;28;20049;-61
2023/07/26 07:15:37;;;;;;;4.18;1.40;;;;;;;14.41;100.00;100369.75;5033799;28;20505;-62
2023/07/26 07:18:04;;;;;;;6.15;1.95;;;;;;;14.45;100.00;100374.56;5033477;28;20049;-62
2023/07/26 07:20:41;;;;;;;6.32;1.40;;;;;;;14.83;100.00;100368.88;5033688;28;20049;-63
2023/07/26 07:23:09;;;;;;;6.03;1.50;;;;;;;14.65;100.00;100369.34;5033463;28;20053;-64
2023/07/26 07:25:39;;;;;;;8.55;1.42;;;;;;;14.70;100.00;100369.59;5033615;28;20065;-63
2023/07/26 07:28:05;;;;;;;5.90;1.67;;;;;;;14.66;100.00;100362.06;5033522;28;20501;-64
2023/07/26 07:30:32;;;;;;;5.68;1.85;;;;;;;14.69;100.00;100364.38;5033751;28;20045;-63
2023/07/26 07:32:58;;;;;;;3.90;1.17;;;;;;;14.85;100.00;100368.69;5033199;28;20049;-62
2023/07/26 07:35:25;;;;;;;6.22;1.50;;;;;;;14.97;100.00;100370.63;5033985;28;20049;-62
2023/07/26 07:37:52;;;;;;;11.80;2.08;;;;;;;15.25;100.00;100370.59;5032033;28;20099;-62
2023/07/26 07:40:18;;;;;;;7.85;1.60;;;;;;;15.57;100.00;100370.97;5033237;28;20073;-62
2023/07/26 07:42:45;;;;;;;10.80;3.85;;;;;;;15.91;100.00;100371.94;5033096;28;20072;-63
2023/07/26 07:45:11;;;;;;;8.27;2.72;;;;;;;16.32;100.00;100374.53;5033318;28;20660;-61
2023/07/26 07:47:38;;;;;;;7.00;1.63;;;;;;;16.43;100.00;100373.91;5033405;28;20050;-61
2023/07/26 07:50:06;;;;;;;4.80;1.50;;;;;;;16.56;100.00;100365.00;5033171;28;20072;-62
2023/07/26 07:52:32;;;;;;;3.53;1.67;;;;;;;16.30;100.00;100373.91;5032705;28;20049;-63
2023/07/26 07:54:59;;;;;;;5.90;1.80;;;;;;;16.55;100.00;100374.16;5032754;28;20053;-61
2023/07/26 07:57:25;;;;;;;12.88;1.88;;;;;;;16.97;99.84;100380.19;5033357;28;20046;-62
2023/07/26 07:59:53;;;;;;;4.30;1.30;;;;;;;16.93;92.86;100378.94;5036794;28;20045;-64
2023/07/26 08:02:23;;;;;;;6.50;1.55;;;;;;;17.03;91.46;100382.06;5032183;28;20052;-62
2023/07/26 08:04:49;;;;;;;3.88;1.40;;;;;;;16.97;90.68;100384.75;5032989;28;20045;-64
2023/07/26 08:07:16;;;;;;;5.50;1.27;;;;;;;16.94;91.58;100386.00;5032673;28;20107;-63
2023/07/26 08:09:43;;;;;;;6.95;1.58;;;;;;;16.99;91.33;100380.81;5032886;28;20045;-61
2023/07/26 08:12:11;;;;;;;5.30;1.70;;;;;;;17.10;87.38;100379.31;5031315;28;20053;-63
2023/07/26 08:14:37;;;;;;;4.07;1.45;;;;;;;17.51;85.23;100389.88;5032825;28;20045;-62
2023/07/26 08:17:04;;;;;;;6.68;1.40;;;;;;;17.85;82.72;100385.13;5032166;28;20081;-63
2023/07/26 08:19:31;;;;;;;4.10;1.33;;;;;;;17.69;82.57;100382.94;5032822;28;20041;-62
2023/07/26 08:21:58;;;;;;;6.22;1.55;;;;;;;17.87;78.74;100390.34;5032610;28;20421;-62
2023/07/26 08:24:25;;;;;;;4.20;1.00;;;;;;;18.14;75.79;100388.34;5032819;28;20056;-62
2023/07/26 08:26:52;;;;;;;3.58;1.63;;;;;;;17.88;73.67;100390.13;5036321;28;20792;-63
2023/07/26 08:29:19;;;;;;;6.60;1.42;;;;;;;17.70;75.17;100392.72;5032514;28;20481;-63
2023/07/26 08:31:45;;;;;;;4.70;1.40;;;;;;;17.47;76.20;100390.50;5032184;28;20049;-65
2023/07/26 08:34:12;;;;;;;8.25;1.67;;;;;;;17.34;79.23;100394.13;5031745;28;20097;-61
2023/07/26 08:36:39;;;;;;;3.25;1.30;;;;;;;17.10;81.06;100388.28;5032361;28;20123;-63
2023/07/26 08:39:05;;;;;;;4.55;1.52;;;;;;;17.33;80.15;100386.97;5032166;28;20115;-63
2023/07/26 08:41:38;;;;;;;8.48;1.90;;;;;;;17.69;78.86;100391.06;5032044;28;20065;-63
2023/07/26 08:44:06;;;;;;;3.53;1.55;;;;;;;17.66;76.64;100389.59;5031593;28;20056;-64
2023/07/26 08:46:33;;;;;;;7.15;1.52;;;;;;;17.67;77.96;100388.56;5031432;28;20720;-62
2023/07/26 08:49:00;;;;;;;3.15;1.42;;;;;;;18.37;74.98;100385.88;5031847;28;20069;-63
2023/07/26 08:51:28;;;;;;;6.82;1.58;;;;;;;18.78;72.12;100387.22;5032451;28;20053;-61
2023/07/26 08:53:57;;;;;;;7.32;1.73;;;;;;;19.12;70.77;100385.91;5031910;28;20456;-64
2023/07/26 08:56:27;;;;;;;8.93;1.50;;;;;;;19.45;69.82;100384.69;5032060;28;20041;-63
2023/07/26 08:58:53;;;;;;;6.70;1.67;;;;;;;19.43;69.80;100393.09;5032013;28;20099;-61
2023/07/26 09:01:21;;;;;;;3.70;1.23;;;;;;;18.97;70.24;100386.25;5031728;28;20104;-64
2023/07/26 09:03:48;;;;;;;3.97;1.48;;;;;;;19.65;67.90;100379.00;5031667;28;20095;-63
2023/07/26 09:06:15;;;;;;;4.55;1.55;;;;;;;20.54;63.89;100376.53;5031781;28;20041;-60
2023/07/26 09:08:42;;;;;;;3.40;1.40;;;;;;;21.07;59.80;100376.44;5031644;28;20121;-62
2023/07/26 09:11:23;;;;;;;5.50;1.60;;;;;;;21.40;58.02;100374.19;5031645;28;20127;-63
2023/07/26 09:13:59;;;;;;;8.80;1.52;;;;;;;21.58;56.52;100376.75;5031461;28;20108;-63
2023/07/26 09:16:32;;;;;;;6.28;1.30;;;;;;;22.21;54.19;100372.22;5039578;28;20143;-61
2023/07/26 09:18:59;;;;;;;5.20;1.50;;;;;;;22.68;52.96;100372.81;5034908;28;20053;-62
2023/07/26 09:21:31;;;;;;;4.03;1.50;;;;;;;22.56;50.38;100382.97;5032157;28;20061;-64
2023/07/26 09:23:59;;;;;;;5.43;1.30;;;;;;;21.11;53.37;100385.84;5034534;28;20049;-62
2023/07/26 09:26:37;;;;;;;2.25;1.30;;;;;;;20.24;55.97;100376.56;5031758;28;20049;-64
2023/07/26 09:29:15;;;;;;;3.40;1.23;;;;;;;19.58;59.16;100381.00;5033944;28;20052;-63
2023/07/26 09:31:43;;;;;;;7.57;1.30;;;;;;;20.44;57.83;100386.13;5031588;28;20468;-63
2023/07/26 09:34:13;;;;;;;8.30;1.27;;;;;;;20.37;57.67;100389.97;5030155;28;20452;-63
2023/07/26 09:36:50;;;;;;;5.82;1.17;;;;;;;20.16;57.75;100396.78;5031198;28;20045;-63
2023/07/26 09:39:28;;;;;;;4.13;1.45;;;;;;;19.75;58.60;100387.50;5031273;28;20478;-64
2023/07/26 09:42:08;;;;;;;6.30;1.33;;;;;;;20.84;56.03;100393.66;5030298;28;20533;-64
2023/07/26 09:44:36;;;;;;;7.32;1.55;;;;;;;21.90;53.73;100390.78;5031014;28;20508;-62
2023/07/26 09:47:04;;;;;;;5.15;1.67;;;;;;;22.05;52.58;100387.53;5031175;28;20131;-63
2023/07/26 09:49:31;;;;;;;6.93;1.38;;;;;;;22.10;51.79;100387.63;5031249;28;20061;-64
2023/07/26 09:52:00;;;;;;;2.38;1.35;;;;;;;22.39;49.79;100382.09;5031043;28;20077;-65
2023/07/26 09:54:32;;;;;;;3.88;1.45;;;;;;;23.16;48.29;100376.84;5030897;28;20041;-66
2023/07/26 09:57:01;;;;;;;5.03;1.30;;;;;;;21.81;50.74;100373.16;5030685;28;20049;-63
2023/07/26 09:59:29;;;;;;;3.15;1.30;;;;;;;21.09;52.62;100368.03;5029334;28;20044;-66
2023/07/26 10:02:00;;;;;;;1.60;1.25;;;;;;;20.36;53.63;100370.09;5031246;28;20128;-63
2023/07/26 10:04:49;;;;;;;5.00;1.60;;;;;;;21.81;50.08;100364.97;5030780;28;20041;-63
2023/07/26 10:07:16;;;;;;;2.95;1.45;;;;;;;22.96;47.14;100363.66;5031866;28;20045;-62
2023/07/26 10:09:44;;;;;;;5.05;1.13;;;;;;;22.95;46.42;100370.22;5031063;28;20559;-64
2023/07/26 10:12:12;;;;;;;2.67;1.10;;;;;;;23.55;44.77;100365.84;5030693;28;20049;-64
2023/07/26 10:14:39;;;;;;;3.72;1.40;;;;;;;24.05;43.32;100356.53;5031054;28;20493;-63
2023/07/26 10:17:06;;;;;;;7.20;1.58;;;;;;;24.23;43.61;100357.25;5030966;28;20099;-64
2023/07/26 10:19:36;;;;;;;3.30;1.50;;;;;;;24.79;41.82;100355.00;5030375;28;20078;-64
2023/07/26 10:22:04;;;;;;;6.35;1.30;;;;;;;25.57;40.32;100350.47;5029240;28;20054;-65
2023/07/26 10:24:36;;;;;;;5.93;1.27;;;;;;;26.19;39.97;100342.44;5030204;28;20464;-64
2023/07/26 10:27:04;;;;;;;3.67;1.25;;;;;;;24.92;41.89;100346.28;5030786;28;20559;-65
2023/07/26 10:29:30;;;;;;;2.25;1.30;;;;;;;24.28;42.69;100340.88;5031004;28;20061;-64
2023/07/26 10:32:06;;;;;;;2.47;1.40;;;;;;;24.64;42.27;100348.31;5031044;28;20049;-65
2023/07/26 10:34:33;;;;;;;2.85;1.52;;;;;;;25.23;41.01;100346.50;5030482;28;20061;-64
2023/07/26 10:37:13;;;;;;;4.72;1.60;;;;;;;26.38;38.64;100339.97;5030674;28;20453;-63
2023/07/26 10:39:40;;;;;;;2.78;1.23;;;;;;;27.22;37.13;100336.53;5030468;28;20057;-64
2023/07/26 10:42:21;;;;;;;4.57;1.30;;;;;;;27.94;36.20;100336.25;5029427;28;20092;-64
2023/07/26 10:44:48;;;;;;;3.63;1.55;;;;;;;27.70;35.88;100342.41;5030033;28;20178;-65
2023/07/26 10:47:15;;;;;;;7.57;1.60;;;;;;;26.09;37.43;100335.78;5028993;28;20049;-63
2023/07/26 10:49:46;;;;;;;4.07;1.40;;;;;;;24.18;40.46;100334.19;5029050;28;20050;-63
2023/07/26 10:52:13;;;;;;;5.85;1.48;;;;;;;22.72;45.05;100338.41;5028900;28;20511;-63
2023/07/26 10:54:41;;;;;;;10.27;2.38;;;;;;;22.04;54.01;100353.06;5030117;28;20052;-62
2023/07/26 10:57:20;;;;;;;4.80;1.77;;;;;;;21.48;56.80;100350.06;5030247;28;20054;-62
2023/07/26 11:00:06;;;;;;;5.65;1.63;;;;;;;21.83;56.67;100344.50;5028968;28;20069;-65
2023/07/26 11:02:42;;;;;;;8.07;2.05;;;;;;;22.96;56.07;100343.69;5030085;28;20046;-64
2023/07/26 11:05:11;;;;;;;5.07;1.80;;;;;;;22.47;57.98;100340.75;5030187;28;20069;-64
2023/07/26 11:08:00;;;;;;;7.50;1.88;;;;;;;21.41;56.89;100337.63;5029002;28;20501;-65
2023/07/26 11:10:32;;;;;;;6.93;1.67;;;;;;;21.51;58.32;100337.84;5033947;28;20439;-64
2023/07/26 11:13:16;;;;;;;4.10;1.60;;;;;;;20.50;58.39;100337.22;5032914;28;20417;-63
2023/07/26 11:15:50;;;;;;;5.05;2.00;;;;;;;20.10;62.06;100326.91;5028311;28;20133;-64
2023/07/26 11:18:41;;;;;;;5.78;2.00;;;;;;;20.39;60.03;100341.56;5030312;28;20051;-64
2023/07/26 11:21:15;;;;;;;6.30;1.77;;;;;;;20.82;58.24;100338.50;5028627;28;20540;-64
2023/07/26 11:23:42;;;;;;;7.15;1.90;;;;;;;21.21;58.09;100341.59;5028640;28;20049;-64
2023/07/26 11:26:08;;;;;;;6.45;2.03;;;;;;;20.75;60.36;100356.06;5028920;28;20045;-65